Terminal Aerodrome Forecast
Issued by NWS

Home | Current Version | Previous Version | Text Only | Print | Product List | Glossary On
Versions: 1 2 3 4 5 6 7 8 9 10 11 12 13 14 15 16 17
000
FTUS46 KMTR 311600 AAA
TAFOAK
TAF AMD
KOAK 311611Z 3116/0118 00000KT P6SM SKC
     FM311900 29006KT P6SM SKC
     FM010300 VRB03KT P6SM SKC
     FM010800 VRB03KT 6SM BR SCT007=

USA.gov is the U.S. government's official web portal to all federal, state and local government web resources and services.